sensor_id;sensor_type;location;lat;lon;timestamp;pressure;altitude;pressure_sealevel;temperature;humidity
60725;BME280;59881;36.722;-4.462;2023-02-04T00:01:03;102289.53;;;6.25;73.63
60725;BME280;59881;36.722;-4.462;2023-02-04T00:03:29;102471.16;;;7.35;73.60
60725;BME280;59881;36.722;-4.462;2023-02-04T00:05:54;102488.66;;;7.34;73.53
60725;BME280;59881;36.722;-4.462;2023-02-04T00:08:20;101524.88;;;1.68;73.95
60725;BME280;59881;36.722;-4.462;2023-02-04T00:10:45;101542.78;;;1.86;73.82
60725;BME280;59881;36.722;-4.462;2023-02-04T00:13:11;102611.78;;;7.39;74.36
60725;BME280;59881;36.722;-4.462;2023-02-04T00:15:37;102476.34;;;7.38;74.45
60725;BME280;59881;36.722;-4.462;2023-02-04T00:18:02;101989.78;;;4.23;73.98
60725;BME280;59881;36.722;-4.462;2023-02-04T00:20:29;102473.03;;;7.31;74.23
60725;BME280;59881;36.722;-4.462;2023-02-04T00:22:55;102646.13;;;7.28;74.39
60725;BME280;59881;36.722;-4.462;2023-02-04T00:25:21;102391.78;;;6.56;74.01
60725;BME280;59881;36.722;-4.462;2023-02-04T00:27:46;102325.56;;;5.70;74.52
60725;BME280;59881;36.722;-4.462;2023-02-04T00:30:12;101941.31;;;4.11;74.00
60725;BME280;59881;36.722;-4.462;2023-02-04T00:32:38;102352.41;;;6.61;74.91
60725;BME280;59881;36.722;-4.462;2023-02-04T00:35:03;102013.63;;;4.03;74.27
60725;BME280;59881;36.722;-4.462;2023-02-04T00:37:31;102456.53;;;7.26;74.68
60725;BME280;59881;36.722;-4.462;2023-02-04T00:39:56;102455.78;;;7.21;74.70
60725;BME280;59881;36.722;-4.462;2023-02-04T00:42:22;101926.09;;;3.90;74.34
60725;BME280;59881;36.722;-4.462;2023-02-04T00:44:47;102085.09;;;3.36;74.66
60725;BME280;59881;36.722;-4.462;2023-02-04T00:47:13;101900.13;;;3.85;74.60
60725;BME280;59881;36.722;-4.462;2023-02-04T00:49:39;102235.41;;;5.03;75.04
60725;BME280;59881;36.722;-4.462;2023-02-04T00:52:05;102587.09;;;7.10;75.09
60725;BME280;59881;36.722;-4.462;2023-02-04T00:54:31;102586.31;;;7.07;74.90
60725;BME280;59881;36.722;-4.462;2023-02-04T00:56:56;102547.44;;;6.43;74.99
60725;BME280;59881;36.722;-4.462;2023-02-04T00:59:22;102441.34;;;7.04;75.30
60725;BME280;59881;36.722;-4.462;2023-02-04T01:01:48;102422.78;;;5.91;75.01
60725;BME280;59881;36.722;-4.462;2023-02-04T01:04:13;102434.31;;;7.05;75.57
60725;BME280;59881;36.722;-4.462;2023-02-04T01:06:39;102163.69;;;5.17;75.45
60725;BME280;59881;36.722;-4.462;2023-02-04T01:09:05;102567.97;;;7.05;75.76
60725;BME280;59881;36.722;-4.462;2023-02-04T01:11:31;102259.56;;;5.99;75.44
60725;BME280;59881;36.722;-4.462;2023-02-04T01:13:57;102345.00;;;6.42;75.50
60725;BME280;59881;36.722;-4.462;2023-02-04T01:16:22;102424.22;;;6.88;75.71
60725;BME280;59881;36.722;-4.462;2023-02-04T01:18:48;102243.56;;;5.73;75.50
60725;BME280;59881;36.722;-4.462;2023-02-04T01:21:14;102145.50;;;5.11;75.76
60725;BME280;59881;36.722;-4.462;2023-02-04T01:23:39;102441.53;;;6.16;75.78
60725;BME280;59881;36.722;-4.462;2023-02-04T01:26:05;101924.44;;;3.36;75.70
60725;BME280;59881;36.722;-4.462;2023-02-04T01:28:30;101786.25;;;2.96;75.71
60725;BME280;59881;36.722;-4.462;2023-02-04T01:30:56;102631.59;;;6.70;76.17
60725;BME280;59881;36.722;-4.462;2023-02-04T01:33:21;102456.63;;;6.01;76.20
60725;BME280;59881;36.722;-4.462;2023-02-04T01:35:47;102054.38;;;4.55;76.38
60725;BME280;59881;36.722;-4.462;2023-02-04T01:38:13;102450.16;;;6.61;76.54
60725;BME280;59881;36.722;-4.462;2023-02-04T01:40:39;102197.41;;;5.31;76.90
60725;BME280;59881;36.722;-4.462;2023-02-04T01:43:05;101893.81;;;3.50;76.58
60725;BME280;59881;36.722;-4.462;2023-02-04T01:45:31;102405.75;;;6.57;77.06
60725;BME280;59881;36.722;-4.462;2023-02-04T01:48:03;102489.53;;;6.58;77.33
60725;BME280;59881;36.722;-4.462;2023-02-04T01:50:29;101814.78;;;3.00;77.04
60725;BME280;59881;36.722;-4.462;2023-02-04T01:52:55;102484.41;;;6.51;77.51
60725;BME280;59881;36.722;-4.462;2023-02-04T01:55:26;101339.50;;;0.10;76.80
60725;BME280;59881;36.722;-4.462;2023-02-04T01:57:52;102561.44;;;6.42;77.77
60725;BME280;59881;36.722;-4.462;2023-02-04T02:00:22;101942.22;;;3.62;77.69
60725;BME280;59881;36.722;-4.462;2023-02-04T02:02:50;102025.78;;;4.04;77.59
60725;BME280;59881;36.722;-4.462;2023-02-04T02:05:26;102040.50;;;4.07;77.85
60725;BME280;59881;36.722;-4.462;2023-02-04T02:07:55;101483.25;;;0.53;77.72
60725;BME280;59881;36.722;-4.462;2023-02-04T02:10:22;102240.25;;;5.23;78.59
60725;BME280;59881;36.722;-4.462;2023-02-04T02:12:48;102411.69;;;6.25;78.87
60725;BME280;59881;36.722;-4.462;2023-02-04T02:15:15;102315.28;;;5.14;78.47
60725;BME280;59881;36.722;-4.462;2023-02-04T02:17:41;102202.34;;;5.00;79.00
60725;BME280;59881;36.722;-4.462;2023-02-04T02:20:09;102411.72;;;6.23;79.32
60725;BME280;59881;36.722;-4.462;2023-02-04T02:23:03;102416.94;;;6.23;78.70
60725;BME280;59881;36.722;-4.462;2023-02-04T02:25:31;102064.88;;;3.51;78.49
60725;BME280;59881;36.722;-4.462;2023-02-04T02:27:58;102403.97;;;6.18;79.58
60725;BME280;59881;36.722;-4.462;2023-02-04T02:30:25;102180.09;;;4.81;78.70
60725;BME280;59881;36.722;-4.462;2023-02-04T02:32:52;102393.63;;;6.12;79.49
60725;BME280;59881;36.722;-4.462;2023-02-04T02:35:18;102339.53;;;5.23;79.43
60725;BME280;59881;36.722;-4.462;2023-02-04T02:37:44;102514.81;;;6.16;79.43
60725;BME280;59881;36.722;-4.462;2023-02-04T02:40:10;102286.81;;;5.47;79.70
60725;BME280;59881;36.722;-4.462;2023-02-04T02:42:36;102433.69;;;6.14;79.67
60725;BME280;59881;36.722;-4.462;2023-02-04T02:45:06;102389.22;;;6.14;80.43
60725;BME280;59881;36.722;-4.462;2023-02-04T02:47:33;102026.75;;;3.99;79.95
60725;BME280;59881;36.722;-4.462;2023-02-04T02:49:58;102079.81;;;3.40;79.88
60725;BME280;59881;36.722;-4.462;2023-02-04T02:52:24;102029.19;;;2.96;80.02
60725;BME280;59881;36.722;-4.462;2023-02-04T02:54:49;101784.44;;;2.46;80.29
60725;BME280;59881;36.722;-4.462;2023-02-04T02:57:18;102272.16;;;5.38;80.76
60725;BME280;59881;36.722;-4.462;2023-02-04T02:59:44;102245.41;;;5.26;81.22
60725;BME280;59881;36.722;-4.462;2023-02-04T03:02:12;102384.94;;;6.09;81.61
60725;BME280;59881;36.722;-4.462;2023-02-04T03:04:48;101805.88;;;2.64;81.03
60725;BME280;59881;36.722;-4.462;2023-02-04T03:07:15;102083.41;;;3.89;81.16
60725;BME280;59881;36.722;-4.462;2023-02-04T03:09:42;102361.66;;;5.51;81.62
60725;BME280;59881;36.722;-4.462;2023-02-04T03:12:08;102374.66;;;6.01;81.88
60725;BME280;59881;36.722;-4.462;2023-02-04T03:14:34;101976.88;;;3.67;82.43
60725;BME280;59881;36.722;-4.462;2023-02-04T03:17:01;101655.53;;;1.73;81.77
60725;BME280;59881;36.722;-4.462;2023-02-04T03:19:28;101954.50;;;3.56;81.92
60725;BME280;59881;36.722;-4.462;2023-02-04T03:21:55;102252.38;;;4.24;82.16
60725;BME280;59881;36.722;-4.462;2023-02-04T03:24:21;102250.53;;;5.30;82.99
60725;BME280;59881;36.722;-4.462;2023-02-04T03:26:47;101796.44;;;2.55;82.70
60725;BME280;59881;36.722;-4.462;2023-02-04T03:29:13;102220.53;;;4.56;82.96
60725;BME280;59881;36.722;-4.462;2023-02-04T03:31:38;102342.41;;;5.07;83.56
60725;BME280;59881;36.722;-4.462;2023-02-04T03:34:04;101890.22;;;3.05;83.38
60725;BME280;59881;36.722;-4.462;2023-02-04T03:36:30;102346.44;;;5.72;83.49
60725;BME280;59881;36.722;-4.462;2023-02-04T03:38:56;102342.19;;;5.66;83.70
60725;BME280;59881;36.722;-4.462;2023-02-04T03:41:21;102390.28;;;5.08;83.49
60725;BME280;59881;36.722;-4.462;2023-02-04T03:43:47;101705.94;;;1.61;83.60
60725;BME280;59881;36.722;-4.462;2023-02-04T03:46:12;101843.06;;;2.69;83.55
60725;BME280;59881;36.722;-4.462;2023-02-04T03:48:38;102027.03;;;3.83;83.40
60725;BME280;59881;36.722;-4.462;2023-02-04T03:51:04;101565.94;;;0.79;83.79
60725;BME280;59881;36.722;-4.462;2023-02-04T03:53:29;102327.41;;;5.65;83.78
60725;BME280;59881;36.722;-4.462;2023-02-04T03:55:55;102005.50;;;3.72;83.40
60725;BME280;59881;36.722;-4.462;2023-02-04T03:58:20;102241.38;;;5.08;83.71
60725;BME280;59881;36.722;-4.462;2023-02-04T04:00:46;101545.97;;;0.84;83.29
60725;BME280;59881;36.722;-4.462;2023-02-04T04:03:11;102329.22;;;5.62;83.99
60725;BME280;59881;36.722;-4.462;2023-02-04T04:05:37;102326.63;;;5.60;83.38
60725;BME280;59881;36.722;-4.462;2023-02-04T04:08:02;101510.66;;;0.74;83.10
60725;BME280;59881;36.722;-4.462;2023-02-04T04:10:28;102217.34;;;4.89;83.60
60725;BME280;59881;36.722;-4.462;2023-02-04T04:12:54;102331.06;;;5.56;83.36
60725;BME280;59881;36.722;-4.462;2023-02-04T04:15:19;101867.16;;;2.82;82.98
60725;BME280;59881;36.722;-4.462;2023-02-04T04:17:45;102024.03;;;3.53;83.13
60725;BME280;59881;36.722;-4.462;2023-02-04T04:20:11;102336.31;;;5.55;83.55
60725;BME280;59881;36.722;-4.462;2023-02-04T04:22:37;102365.63;;;5.24;83.82
60725;BME280;59881;36.722;-4.462;2023-02-04T04:25:03;102330.06;;;5.62;83.50
60725;BME280;59881;36.722;-4.462;2023-02-04T04:27:29;102012.88;;;2.85;82.18
60725;BME280;59881;36.722;-4.462;2023-02-04T04:29:55;101807.78;;;2.51;81.61
60725;BME280;59881;36.722;-4.462;2023-02-04T04:32:20;102021.13;;;3.72;80.92
60725;BME280;59881;36.722;-4.462;2023-02-04T04:34:46;101966.59;;;2.39;79.27
60725;BME280;59881;36.722;-4.462;2023-02-04T04:37:12;102353.47;;;5.68;79.23
60725;BME280;59881;36.722;-4.462;2023-02-04T04:39:37;102435.47;;;5.66;78.01
60725;BME280;59881;36.722;-4.462;2023-02-04T04:42:03;102334.22;;;5.74;77.18
60725;BME280;59881;36.722;-4.462;2023-02-04T04:44:28;102378.69;;;5.72;76.92
60725;BME280;59881;36.722;-4.462;2023-02-04T04:46:53;102333.31;;;5.73;76.70
60725;BME280;59881;36.722;-4.462;2023-02-04T04:49:19;101748.44;;;2.19;76.05
60725;BME280;59881;36.722;-4.462;2023-02-04T04:51:44;102052.22;;;3.83;76.39
60725;BME280;59881;36.722;-4.462;2023-02-04T04:54:10;102076.06;;;4.11;76.64
60725;BME280;59881;36.722;-4.462;2023-02-04T04:56:35;102520.91;;;5.64;76.51
60725;BME280;59881;36.722;-4.462;2023-02-04T04:59:01;102481.78;;;5.59;76.18
60725;BME280;59881;36.722;-4.462;2023-02-04T05:01:27;102345.84;;;5.57;76.63
60725;BME280;59881;36.722;-4.462;2023-02-04T05:03:53;102389.97;;;4.07;76.74
60725;BME280;59881;36.722;-4.462;2023-02-04T05:06:18;101863.81;;;2.72;76.18
60725;BME280;59881;36.722;-4.462;2023-02-04T05:08:53;102335.53;;;5.51;76.35
60725;BME280;59881;36.722;-4.462;2023-02-04T05:11:19;102200.25;;;4.72;76.60
60725;BME280;59881;36.722;-4.462;2023-02-04T05:13:45;102327.72;;;5.48;76.38
60725;BME280;59881;36.722;-4.462;2023-02-04T05:16:10;102062.53;;;3.90;76.25
60725;BME280;59881;36.722;-4.462;2023-02-04T05:18:39;102387.00;;;4.96;76.37
60725;BME280;59881;36.722;-4.462;2023-02-04T05:21:05;102023.78;;;3.69;76.02
60725;BME280;59881;36.722;-4.462;2023-02-04T05:23:31;101769.97;;;1.67;75.62
60725;BME280;59881;36.722;-4.462;2023-02-04T05:25:57;102484.38;;;5.60;75.89
60725;BME280;59881;36.722;-4.462;2023-02-04T05:28:22;102240.44;;;5.12;75.47
60725;BME280;59881;36.722;-4.462;2023-02-04T05:30:48;102359.53;;;5.70;74.82
60725;BME280;59881;36.722;-4.462;2023-02-04T05:33:13;101884.38;;;2.90;74.63
60725;BME280;59881;36.722;-4.462;2023-02-04T05:35:39;102004.84;;;2.99;74.65
60725;BME280;59881;36.722;-4.462;2023-02-04T05:38:04;102021.00;;;3.80;74.15
60725;BME280;59881;36.722;-4.462;2023-02-04T05:40:30;101705.34;;;2.04;73.44
60725;BME280;59881;36.722;-4.462;2023-02-04T05:42:56;101740.97;;;1.96;74.07
60725;BME280;59881;36.722;-4.462;2023-02-04T05:45:21;102224.69;;;5.16;73.88
60725;BME280;59881;36.722;-4.462;2023-02-04T05:47:47;102351.38;;;5.87;73.48
60725;BME280;59881;36.722;-4.462;2023-02-04T05:50:13;102372.31;;;5.87;73.60
60725;BME280;59881;36.722;-4.462;2023-02-04T05:52:38;101943.03;;;3.13;73.08
60725;BME280;59881;36.722;-4.462;2023-02-04T05:55:04;101688.22;;;1.91;72.85
60725;BME280;59881;36.722;-4.462;2023-02-04T05:57:30;102341.91;;;5.80;72.95
60725;BME280;59881;36.722;-4.462;2023-02-04T05:59:56;101893.66;;;3.07;72.84
60725;BME280;59881;36.722;-4.462;2023-02-04T06:02:21;102350.72;;;5.76;72.64
60725;BME280;59881;36.722;-4.462;2023-02-04T06:04:47;102493.69;;;5.75;73.17
60725;BME280;59881;36.722;-4.462;2023-02-04T06:07:12;102194.03;;;4.80;72.63
60725;BME280;59881;36.722;-4.462;2023-02-04T06:09:38;102352.63;;;5.68;73.06
60725;BME280;59881;36.722;-4.462;2023-02-04T06:12:04;102506.06;;;5.66;73.17
60725;BME280;59881;36.722;-4.462;2023-02-04T06:14:29;102234.69;;;4.93;72.83
60725;BME280;59881;36.722;-4.462;2023-02-04T06:16:55;102142.63;;;4.33;72.61
60725;BME280;59881;36.722;-4.462;2023-02-04T06:19:20;101790.03;;;2.19;73.00
60725;BME280;59881;36.722;-4.462;2023-02-04T06:21:46;101725.59;;;1.82;72.88
60725;BME280;59881;36.722;-4.462;2023-02-04T06:24:11;102258.19;;;4.94;73.09
60725;BME280;59881;36.722;-4.462;2023-02-04T06:26:37;102232.44;;;4.73;72.39
60725;BME280;59881;36.722;-4.462;2023-02-04T06:29:02;101970.31;;;2.87;72.08
60725;BME280;59881;36.722;-4.462;2023-02-04T06:31:28;102361.06;;;5.35;72.66
60725;BME280;59881;36.722;-4.462;2023-02-04T06:33:53;101886.69;;;2.50;72.66
60725;BME280;59881;36.722;-4.462;2023-02-04T06:36:19;101773.22;;;1.82;72.96
60725;BME280;59881;36.722;-4.462;2023-02-04T06:38:45;101310.56;;;-1.06;72.06
60725;BME280;59881;36.722;-4.462;2023-02-04T06:41:10;102514.47;;;5.30;72.80
60725;BME280;59881;36.722;-4.462;2023-02-04T06:43:36;102362.16;;;5.22;72.68
60725;BME280;59881;36.722;-4.462;2023-02-04T06:46:01;102545.06;;;5.24;72.78
60725;BME280;59881;36.722;-4.462;2023-02-04T06:48:27;102188.91;;;4.22;72.63
60725;BME280;59881;36.722;-4.462;2023-02-04T06:50:52;102229.53;;;4.39;73.34
60725;BME280;59881;36.722;-4.462;2023-02-04T06:53:18;101887.78;;;2.34;73.10
60725;BME280;59881;36.722;-4.462;2023-02-04T06:55:43;101937.06;;;2.44;72.89
60725;BME280;59881;36.722;-4.462;2023-02-04T06:58:09;101901.56;;;2.40;73.10
60725;BME280;59881;36.722;-4.462;2023-02-04T07:00:34;102431.94;;;5.18;73.72
60725;BME280;59881;36.722;-4.462;2023-02-04T07:03:00;102280.47;;;4.63;73.50
60725;BME280;59881;36.722;-4.462;2023-02-04T07:05:25;102047.91;;;3.23;73.79
60725;BME280;59881;36.722;-4.462;2023-02-04T07:07:51;102079.44;;;3.04;73.17
60725;BME280;59881;36.722;-4.462;2023-02-04T07:10:17;101869.13;;;1.22;73.49
60725;BME280;59881;36.722;-4.462;2023-02-04T07:12:45;102375.31;;;5.17;73.55
60725;BME280;59881;36.722;-4.462;2023-02-04T07:15:11;102377.91;;;5.21;73.78
60725;BME280;59881;36.722;-4.462;2023-02-04T07:17:36;102139.97;;;3.84;74.14
60725;BME280;59881;36.722;-4.462;2023-02-04T07:20:02;101975.00;;;2.61;73.60
60725;BME280;59881;36.722;-4.462;2023-02-04T07:22:28;102180.25;;;4.22;73.44
60725;BME280;59881;36.722;-4.462;2023-02-04T07:24:53;102041.22;;;3.05;72.88
60725;BME280;59881;36.722;-4.462;2023-02-04T07:27:19;101998.13;;;2.84;72.75
60725;BME280;59881;36.722;-4.462;2023-02-04T07:29:44;102381.00;;;5.88;72.31
60725;BME280;59881;36.722;-4.462;2023-02-04T07:32:09;102399.31;;;5.41;71.65
60725;BME280;59881;36.722;-4.462;2023-02-04T07:34:35;102692.00;;;8.60;69.71
60725;BME280;59881;36.722;-4.462;2023-02-04T07:37:01;102516.03;;;10.21;65.40
60725;BME280;59881;36.722;-4.462;2023-02-04T07:39:26;101897.84;;;8.80;59.05
60725;BME280;59881;36.722;-4.462;2023-02-04T07:41:52;102363.03;;;11.96;53.13
60725;BME280;59881;36.722;-4.462;2023-02-04T07:44:17;102353.09;;;13.62;49.20
60725;BME280;59881;36.722;-4.462;2023-02-04T07:46:43;102206.00;;;13.89;46.29
60725;BME280;59881;36.722;-4.462;2023-02-04T07:49:08;101989.97;;;13.07;43.44
60725;BME280;59881;36.722;-4.462;2023-02-04T07:51:34;102448.25;;;16.72;40.57
60725;BME280;59881;36.722;-4.462;2023-02-04T07:53:59;102349.38;;;17.57;38.22
60725;BME280;59881;36.722;-4.462;2023-02-04T07:56:25;102304.44;;;18.02;36.17
60725;BME280;59881;36.722;-4.462;2023-02-04T07:58:51;102310.50;;;18.76;34.55
60725;BME280;59881;36.722;-4.462;2023-02-04T08:01:16;102324.78;;;19.46;33.06
60725;BME280;59881;36.722;-4.462;2023-02-04T08:03:42;102318.69;;;20.12;32.27
60725;BME280;59881;36.722;-4.462;2023-02-04T08:06:08;101872.84;;;17.86;30.42
60725;BME280;59881;36.722;-4.462;2023-02-04T08:08:33;101928.09;;;18.52;29.82
60725;BME280;59881;36.722;-4.462;2023-02-04T08:10:59;102363.09;;;21.74;28.65
60725;BME280;59881;36.722;-4.462;2023-02-04T08:13:24;102311.19;;;22.04;27.78
60725;BME280;59881;36.722;-4.462;2023-02-04T08:15:50;102288.41;;;22.59;27.16
60725;BME280;59881;36.722;-4.462;2023-02-04T08:18:16;101981.38;;;21.54;26.13
60725;BME280;59881;36.722;-4.462;2023-02-04T08:20:41;102330.09;;;24.32;24.89
60725;BME280;59881;36.722;-4.462;2023-02-04T08:23:07;102336.09;;;24.97;24.02
60725;BME280;59881;36.722;-4.462;2023-02-04T08:25:33;102359.13;;;25.62;22.71
60725;BME280;59881;36.722;-4.462;2023-02-04T08:27:58;102196.34;;;24.58;22.38
60725;BME280;59881;36.722;-4.462;2023-02-04T08:30:24;102368.59;;;26.59;22.11
60725;BME280;59881;36.722;-4.462;2023-02-04T08:32:49;102354.38;;;27.15;21.32
60725;BME280;59881;36.722;-4.462;2023-02-04T08:35:15;102349.66;;;27.81;20.45
60725;BME280;59881;36.722;-4.462;2023-02-04T08:37:40;102462.16;;;28.47;19.99
60725;BME280;59881;36.722;-4.462;2023-02-04T08:40:06;102359.41;;;28.99;19.43
60725;BME280;59881;36.722;-4.462;2023-02-04T08:42:32;102361.34;;;29.43;18.59
60725;BME280;59881;36.722;-4.462;2023-02-04T08:44:59;102353.09;;;29.66;18.25
60725;BME280;59881;36.722;-4.462;2023-02-04T08:47:24;102352.38;;;29.87;17.78
60725;BME280;59881;36.722;-4.462;2023-02-04T08:49:50;102357.06;;;30.15;17.88
60725;BME280;59881;36.722;-4.462;2023-02-04T08:52:16;102352.38;;;30.88;17.36
60725;BME280;59881;36.722;-4.462;2023-02-04T08:54:41;101985.63;;;29.16;16.68
60725;BME280;59881;36.722;-4.462;2023-02-04T08:57:07;102350.22;;;31.74;16.92
60725;BME280;59881;36.722;-4.462;2023-02-04T08:59:32;102152.53;;;30.90;16.78
60725;BME280;59881;36.722;-4.462;2023-02-04T09:01:58;102311.59;;;32.32;16.56
60725;BME280;59881;36.722;-4.462;2023-02-04T09:04:23;102420.22;;;33.17;15.51
60725;BME280;59881;36.722;-4.462;2023-02-04T09:06:50;102347.72;;;33.41;15.45
60725;BME280;59881;36.722;-4.462;2023-02-04T09:09:15;102022.66;;;31.99;15.15
60725;BME280;59881;36.722;-4.462;2023-02-04T09:11:42;102314.91;;;34.31;14.25
60725;BME280;59881;36.722;-4.462;2023-02-04T09:14:07;102066.53;;;33.46;13.79
60725;BME280;59881;36.722;-4.462;2023-02-04T09:16:33;102353.09;;;35.94;13.39
60725;BME280;59881;36.722;-4.462;2023-02-04T09:18:58;102360.41;;;36.42;13.00
60725;BME280;59881;36.722;-4.462;2023-02-04T09:21:26;102357.88;;;36.71;12.73
60725;BME280;59881;36.722;-4.462;2023-02-04T09:23:52;102090.09;;;35.08;12.78
60725;BME280;59881;36.722;-4.462;2023-02-04T09:26:18;102044.50;;;35.56;12.72
60725;BME280;59881;36.722;-4.462;2023-02-04T09:28:43;102365.13;;;38.28;12.23
60725;BME280;59881;36.722;-4.462;2023-02-04T09:31:09;102361.63;;;39.01;11.89
60725;BME280;59881;36.722;-4.462;2023-02-04T09:33:35;102364.81;;;39.76;11.74
60725;BME280;59881;36.722;-4.462;2023-02-04T09:36:01;102191.38;;;39.03;12.03
60725;BME280;59881;36.722;-4.462;2023-02-04T09:38:26;102369.72;;;40.23;11.95
60725;BME280;59881;36.722;-4.462;2023-02-04T09:40:54;102365.44;;;40.69;11.71
60725;BME280;59881;36.722;-4.462;2023-02-04T09:43:26;102364.25;;;41.40;11.32
60725;BME280;59881;36.722;-4.462;2023-02-04T09:45:53;102386.28;;;41.93;10.62
60725;BME280;59881;36.722;-4.462;2023-02-04T09:48:20;102163.47;;;41.29;10.16
60725;BME280;59881;36.722;-4.462;2023-02-04T09:50:49;102350.25;;;43.16;9.78
60725;BME280;59881;36.722;-4.462;2023-02-04T09:53:18;102236.94;;;42.99;9.67
60725;BME280;59881;36.722;-4.462;2023-02-04T09:55:47;102336.22;;;44.07;9.12
60725;BME280;59881;36.722;-4.462;2023-02-04T09:58:18;102355.84;;;44.50;9.06
60725;BME280;59881;36.722;-4.462;2023-02-04T10:00:45;102352.28;;;44.73;9.20
60725;BME280;59881;36.722;-4.462;2023-02-04T10:03:15;102362.91;;;45.62;8.63
60725;BME280;59881;36.722;-4.462;2023-02-04T10:05:42;102013.31;;;43.53;8.35
60725;BME280;59881;36.722;-4.462;2023-02-04T10:08:13;102353.72;;;46.65;8.38
60725;BME280;59881;36.722;-4.462;2023-02-04T10:10:39;102324.31;;;46.87;7.42
60725;BME280;59881;36.722;-4.462;2023-02-04T10:13:04;102367.66;;;47.48;7.77
60725;BME280;59881;36.722;-4.462;2023-02-04T10:15:32;101930.75;;;45.01;7.86
60725;BME280;59881;36.722;-4.462;2023-02-04T10:18:02;102365.88;;;48.57;7.21
60725;BME280;59881;36.722;-4.462;2023-02-04T10:20:31;102329.75;;;48.69;6.82
60725;BME280;59881;36.722;-4.462;2023-02-04T10:22:57;102204.41;;;48.22;6.31
60725;BME280;59881;36.722;-4.462;2023-02-04T10:25:23;102122.44;;;47.56;6.85
60725;BME280;59881;36.722;-4.462;2023-02-04T10:27:50;102362.19;;;49.19;6.34
60725;BME280;59881;36.722;-4.462;2023-02-04T10:30:42;102359.53;;;49.31;6.39
60725;BME280;59881;36.722;-4.462;2023-02-04T10:33:20;102364.69;;;49.55;6.43
60725;BME280;59881;36.722;-4.462;2023-02-04T10:35:52;102215.81;;;48.92;6.16
60725;BME280;59881;36.722;-4.462;2023-02-04T10:38:18;102363.22;;;49.92;6.47
60725;BME280;59881;36.722;-4.462;2023-02-04T10:40:44;102330.72;;;49.22;6.23
60725;BME280;59881;36.722;-4.462;2023-02-04T10:43:17;102364.91;;;49.67;6.21
60725;BME280;59881;36.722;-4.462;2023-02-04T10:45:45;102123.19;;;48.10;6.31
60725;BME280;59881;36.722;-4.462;2023-02-04T10:48:15;101784.38;;;45.83;6.11
60725;BME280;59881;36.722;-4.462;2023-02-04T10:50:41;102359.94;;;49.64;5.70
60725;BME280;59881;36.722;-4.462;2023-02-04T10:53:09;102359.44;;;49.88;5.73
60725;BME280;59881;36.722;-4.462;2023-02-04T10:55:55;102420.06;;;50.02;5.51
60725;BME280;59881;36.722;-4.462;2023-02-04T10:58:29;102351.03;;;49.88;5.65
60725;BME280;59881;36.722;-4.462;2023-02-04T11:00:56;102354.84;;;49.84;5.49
60725;BME280;59881;36.722;-4.462;2023-02-04T11:03:23;102339.69;;;49.76;5.88
60725;BME280;59881;36.722;-4.462;2023-02-04T11:05:50;102374.28;;;49.54;5.68
60725;BME280;59881;36.722;-4.462;2023-02-04T11:08:36;102250.47;;;45.63;7.10
60725;BME280;59881;36.722;-4.462;2023-02-04T11:11:24;102346.53;;;36.79;11.37
60725;BME280;59881;36.722;-4.462;2023-02-04T11:18:53;102363.31;;;23.10;23.67
60725;BME280;59881;36.722;-4.462;2023-02-04T11:26:43;102359.78;;;20.11;27.86
60725;BME280;59881;36.722;-4.462;2023-02-04T11:29:25;102314.09;;;19.46;28.78
60725;BME280;59881;36.722;-4.462;2023-02-04T11:32:01;102344.56;;;19.43;29.00
60725;BME280;59881;36.722;-4.462;2023-02-04T11:34:28;102344.53;;;19.21;29.54
60725;BME280;59881;36.722;-4.462;2023-02-04T11:39:46;102332.19;;;18.85;29.72
60725;BME280;59881;36.722;-4.462;2023-02-04T11:42:20;102332.31;;;18.70;30.19
60725;BME280;59881;36.722;-4.462;2023-02-04T11:44:57;102283.06;;;18.39;30.44
60725;BME280;59881;36.722;-4.462;2023-02-04T11:47:24;102472.59;;;18.50;30.52
60725;BME280;59881;36.722;-4.462;2023-02-04T11:49:57;101454.44;;;13.11;30.53
60725;BME280;59881;36.722;-4.462;2023-02-04T11:52:23;102318.88;;;18.24;30.25
60725;BME280;59881;36.722;-4.462;2023-02-04T11:54:55;102314.47;;;18.11;30.69
60725;BME280;59881;36.722;-4.462;2023-02-04T11:57:22;102150.31;;;17.09;31.17
60725;BME280;59881;36.722;-4.462;2023-02-04T11:59:47;102302.25;;;17.96;31.08
60725;BME280;59881;36.722;-4.462;2023-02-04T12:02:17;102294.78;;;17.88;30.96
60725;BME280;59881;36.722;-4.462;2023-02-04T12:05:16;102286.38;;;17.82;30.60
60725;BME280;59881;36.722;-4.462;2023-02-04T12:07:43;102087.50;;;16.55;30.21
60725;BME280;59881;36.722;-4.462;2023-02-04T12:10:11;102292.75;;;17.66;30.12
60725;BME280;59881;36.722;-4.462;2023-02-04T12:12:42;102275.81;;;17.67;30.62
60725;BME280;59881;36.722;-4.462;2023-02-04T12:15:23;101821.22;;;14.95;30.84
60725;BME280;59881;36.722;-4.462;2023-02-04T12:20:27;102254.72;;;17.64;30.50
60725;BME280;59881;36.722;-4.462;2023-02-04T12:22:52;102194.72;;;16.83;30.59
60725;BME280;59881;36.722;-4.462;2023-02-04T12:25:18;101776.69;;;14.73;30.52
60725;BME280;59881;36.722;-4.462;2023-02-04T12:27:44;102365.28;;;17.58;30.88
60725;BME280;59881;36.722;-4.462;2023-02-04T12:30:11;101930.78;;;15.63;30.53
60725;BME280;59881;36.722;-4.462;2023-02-04T12:32:37;102241.84;;;17.58;30.17
60725;BME280;59881;36.722;-4.462;2023-02-04T12:35:02;102241.84;;;17.58;29.82
60725;BME280;59881;36.722;-4.462;2023-02-04T12:37:29;102340.63;;;17.55;29.73
60725;BME280;59881;36.722;-4.462;2023-02-04T12:39:54;102147.25;;;16.90;29.75
60725;BME280;59881;36.722;-4.462;2023-02-04T12:42:19;102354.19;;;17.52;29.93
60725;BME280;59881;36.722;-4.462;2023-02-04T12:44:45;102090.81;;;16.72;29.87
60725;BME280;59881;36.722;-4.462;2023-02-04T12:47:10;102295.00;;;16.95;29.85
60725;BME280;59881;36.722;-4.462;2023-02-04T12:49:36;102173.19;;;17.12;29.21
60725;BME280;59881;36.722;-4.462;2023-02-04T12:52:03;102252.34;;;17.23;28.96
60725;BME280;59881;36.722;-4.462;2023-02-04T12:54:29;102210.91;;;17.19;28.36
60725;BME280;59881;36.722;-4.462;2023-02-04T12:56:54;102107.00;;;16.56;27.83
60725;BME280;59881;36.722;-4.462;2023-02-04T12:59:23;102162.66;;;16.98;27.78
60725;BME280;59881;36.722;-4.462;2023-02-04T13:01:49;102198.19;;;17.22;28.37